Time;durP1;ratioP1;P1;durP2;ratioP2;P2;SDS_P1;SDS_P2;PMS_P1;PMS_P2;Temp;Humidity;BMP_temperature;BMP_pressure;BME280_temperature;BME280_humidity;BME280_pressure;Samples;Min_cycle;Max_cycle;Signal;HPM_P1;HPM_P2
2024/04/06 06:18:44;;;;;;;17.50;10.38;;;10.60;99.90;;;;;;5077473;28;20414;-70
2024/04/06 06:21:09;;;;;;;15.10;10.30;;;12.10;99.90;;;;;;5079346;28;20048;-69
2024/04/06 06:23:35;;;;;;;20.33;11.07;;;12.10;99.90;;;;;;5079582;28;20520;-71
2024/04/06 06:26:00;;;;;;;18.73;10.27;;;12.20;99.90;;;;;;5078031;28;20050;-71
2024/04/06 06:28:26;;;;;;;18.80;11.23;;;12.20;99.90;;;;;;5076510;28;20377;-71
2024/04/06 06:30:51;;;;;;;22.10;11.30;;;12.30;99.90;;;;;;5076805;28;20021;-70
2024/04/06 06:33:21;;;;;;;20.27;11.23;;;12.30;99.90;;;;;;5076666;28;20035;-70
2024/04/06 06:35:53;;;;;;;19.60;11.63;;;12.30;99.90;;;;;;5076563;28;20032;-70
2024/04/06 06:38:19;;;;;;;18.35;12.25;;;12.30;99.90;;;;;;5077378;28;20087;-72
2024/04/06 06:40:46;;;;;;;18.10;11.43;;;12.30;99.90;;;;;;5077898;28;20025;-70
2024/04/06 06:43:12;;;;;;;19.42;11.68;;;12.40;99.90;;;;;;5076791;28;20020;-70
2024/04/06 06:45:38;;;;;;;20.20;12.48;;;12.50;99.90;;;;;;5077255;28;20199;-72
2024/04/06 06:48:04;;;;;;;24.17;12.60;;;12.60;99.90;;;;;;5076666;28;20028;-72
2024/04/06 06:50:30;;;;;;;17.77;11.82;;;12.70;99.90;;;;;;5077687;28;20047;-71
2024/04/06 06:52:55;;;;;;;20.58;12.60;;;12.80;99.90;;;;;;5078408;28;20021;-72
2024/04/06 06:55:21;;;;;;;20.25;12.88;;;12.90;99.90;;;;;;5076676;28;20027;-72
2024/04/06 06:57:47;;;;;;;21.25;13.27;;;13.10;99.90;;;;;;5077605;28;20033;-72
2024/04/06 07:00:16;;;;;;;22.60;13.40;;;13.20;99.90;;;;;;5077554;28;20016;-72
2024/04/06 07:02:41;;;;;;;19.77;12.70;;;13.30;99.90;;;;;;5093080;28;20024;-74
2024/04/06 07:05:07;;;;;;;21.70;12.77;;;13.40;99.90;;;;;;5077046;28;20043;-73
2024/04/06 07:07:34;;;;;;;21.40;12.70;;;13.40;99.90;;;;;;5075055;28;20036;-71
2024/04/06 07:10:00;;;;;;;23.40;13.63;;;13.50;99.90;;;;;;5074544;28;20021;-71
2024/04/06 07:12:26;;;;;;;18.15;12.43;;;13.50;99.90;;;;;;5075757;28;20017;-73
2024/04/06 07:14:52;;;;;;;22.90;12.45;;;13.60;99.90;;;;;;5075122;28;20028;-74
2024/04/06 07:17:18;;;;;;;20.55;11.35;;;13.60;99.90;;;;;;5076183;28;20036;-72
2024/04/06 07:19:43;;;;;;;18.38;11.55;;;13.80;99.90;;;;;;5076572;28;20020;-72
2024/04/06 07:22:09;;;;;;;19.25;11.40;;;13.70;99.90;;;;;;5077545;28;20089;-72
2024/04/06 07:24:35;;;;;;;22.02;11.68;;;13.80;99.90;;;;;;5077898;28;20013;-71
2024/04/06 07:27:00;;;;;;;16.80;10.98;;;13.90;99.90;;;;;;5076246;28;20080;-71
2024/04/06 07:29:26;;;;;;;19.30;11.13;;;14.00;99.90;;;;;;5066578;28;20071;-72
2024/04/06 07:31:52;;;;;;;16.70;10.57;;;14.20;99.90;;;;;;5064375;28;20020;-73
2024/04/06 07:34:18;;;;;;;16.48;10.13;;;14.20;99.90;;;;;;5063130;28;20021;-73
2024/04/06 07:36:43;;;;;;;15.90;9.48;;;14.30;99.90;;;;;;5057574;28;20037;-73
2024/04/06 07:39:09;;;;;;;12.52;8.75;;;14.30;99.90;;;;;;5059989;28;20048;-71
2024/04/06 07:41:35;;;;;;;18.20;9.48;;;14.30;99.90;;;;;;5060004;28;20020;-73
2024/04/06 07:44:00;;;;;;;11.68;8.13;;;14.30;99.90;;;;;;5059444;28;20017;-73
2024/04/06 07:46:26;;;;;;;12.55;8.15;;;14.40;99.90;;;;;;5061054;28;20017;-71
2024/04/06 07:48:51;;;;;;;14.45;7.30;;;14.50;99.90;;;;;;5060660;28;20714;-71
2024/04/06 07:51:17;;;;;;;15.00;7.90;;;14.70;99.90;;;;;;5062908;28;20025;-72
2024/04/06 07:53:42;;;;;;;10.48;6.95;;;14.90;99.90;;;;;;5062771;28;20567;-73
2024/04/06 07:56:08;;;;;;;11.68;7.43;;;15.10;99.90;;;;;;5061172;28;20122;-71
2024/04/06 07:58:34;;;;;;;13.20;7.03;;;15.20;99.90;;;;;;5059908;28;20025;-73
2024/04/06 08:01:03;;;;;;;13.32;6.70;;;15.40;99.90;;;;;;5062418;28;20056;-71
2024/04/06 08:03:29;;;;;;;15.43;6.53;;;15.40;99.90;;;;;;5060959;28;20040;-71
2024/04/06 08:05:54;;;;;;;11.40;6.22;;;15.50;99.90;;;;;;5060656;28;20025;-71
2024/04/06 08:08:20;;;;;;;9.55;6.28;;;15.60;99.90;;;;;;5060719;28;20021;-73
2024/04/06 08:10:46;;;;;;;9.13;5.50;;;15.60;99.90;;;;;;5060227;28;20029;-73
2024/04/06 08:13:12;;;;;;;11.20;5.50;;;15.60;99.90;;;;;;5061599;28;20071;-72
2024/04/06 08:15:39;;;;;;;10.90;4.93;;;15.70;99.90;;;;;;5060839;28;20021;-71
2024/04/06 08:18:04;;;;;;;12.98;5.60;;;16.00;99.90;;;;;;5062777;28;20045;-72
2024/04/06 08:20:30;;;;;;;10.60;4.65;;;16.20;99.90;;;;;;5062307;28;20047;-72
2024/04/06 08:22:56;;;;;;;8.30;4.82;;;16.50;99.90;;;;;;5063574;28;20017;-73
2024/04/06 08:25:22;;;;;;;9.48;4.82;;;16.70;99.90;;;;;;5060615;28;20024;-73
2024/04/06 08:27:47;;;;;;;7.32;4.47;;;16.90;99.90;;;;;;5061569;28;20066;-75
2024/04/06 08:30:14;;;;;;;10.27;4.60;;;17.10;99.90;;;;;;5060374;28;20109;-73
2024/04/06 08:32:40;;;;;;;7.53;4.40;;;17.20;99.90;;;;;;5059253;28;20033;-74
2024/04/06 08:35:14;;;;;;;8.18;4.22;;;17.50;99.90;;;;;;5061093;28;20063;-75
2024/04/06 08:37:40;;;;;;;10.20;4.25;;;17.60;99.90;;;;;;5062064;28;20060;-75
2024/04/06 08:40:08;;;;;;;5.97;3.83;;;17.70;99.90;;;;;;5059886;28;20203;-73
2024/04/06 08:42:40;;;;;;;6.63;3.78;;;17.80;99.90;;;;;;5059033;28;20060;-72
2024/04/06 08:45:08;;;;;;;8.90;4.18;;;17.90;99.90;;;;;;5059101;28;20757;-76
2024/04/06 08:47:34;;;;;;;8.02;4.10;;;18.00;99.90;;;;;;5060596;28;20029;-73
2024/04/06 08:50:09;;;;;;;8.93;4.60;;;17.90;99.90;;;;;;5060349;28;20033;-74
2024/04/06 08:52:38;;;;;;;10.07;3.40;;;18.00;99.90;;;;;;5059959;28;20041;-72
2024/04/06 08:55:05;;;;;;;8.52;3.60;;;17.90;99.90;;;;;;5051272;28;20025;-74
2024/04/06 08:57:39;;;;;;;6.82;3.50;;;17.90;99.90;;;;;;5057283;28;20055;-72
2024/04/06 09:00:12;;;;;;;8.32;3.63;;;18.10;99.90;;;;;;5060991;28;20029;-73
2024/04/06 09:02:39;;;;;;;6.68;3.40;;;18.30;99.90;;;;;;5060619;28;20021;-72
2024/04/06 09:05:06;;;;;;;6.57;3.30;;;18.50;99.90;;;;;;5060262;28;20059;-75
2024/04/06 09:07:32;;;;;;;7.30;3.05;;;18.80;99.90;;;;;;5058208;28;20025;-74
2024/04/06 09:09:58;;;;;;;7.75;3.42;;;18.90;99.90;;;;;;5060187;28;20028;-76
2024/04/06 09:12:23;;;;;;;7.72;3.22;;;19.10;99.90;;;;;;5060740;28;20122;-73
2024/04/06 09:14:50;;;;;;;9.52;3.28;;;19.20;99.90;;;;;;5061840;28;20051;-72
2024/04/06 09:17:17;;;;;;;7.82;3.13;;;19.30;99.90;;;;;;5060777;28;20037;-75
2024/04/06 09:19:43;;;;;;;4.65;2.90;;;19.30;99.90;;;;;;5061787;28;20029;-74
2024/04/06 09:22:09;;;;;;;7.07;3.10;;;19.30;99.90;;;;;;5061991;28;20116;-72
2024/04/06 09:24:36;;;;;;;4.57;2.67;;;19.30;99.90;;;;;;5061913;28;20020;-75
2024/04/06 09:27:09;;;;;;;5.05;2.60;;;19.30;99.90;;;;;;5060577;28;20033;-73
2024/04/06 09:29:36;;;;;;;5.55;2.15;;;19.20;99.90;;;;;;5055695;28;20024;-72
2024/04/06 09:32:03;;;;;;;7.75;2.35;;;19.20;99.90;;;;;;5054279;28;20025;-74
2024/04/06 09:34:29;;;;;;;6.03;2.75;;;19.30;99.90;;;;;;5057694;28;20048;-71
2024/04/06 09:37:02;;;;;;;6.25;2.67;;;19.40;99.90;;;;;;5058930;28;20051;-74
2024/04/06 09:39:34;;;;;;;7.03;2.17;;;19.50;99.90;;;;;;5057114;28;20040;-74
2024/04/06 09:42:00;;;;;;;3.83;1.67;;;19.70;99.90;;;;;;5059571;28;20021;-72
2024/04/06 09:44:30;;;;;;;3.55;2.00;;;19.80;99.90;;;;;;5057866;28;20051;-71
2024/04/06 09:46:55;;;;;;;4.28;1.92;;;19.90;99.90;;;;;;5057845;28;20033;-74
2024/04/06 09:49:23;;;;;;;2.42;1.63;;;20.00;99.90;;;;;;5058875;28;20064;-74
2024/04/06 09:51:50;;;;;;;4.15;2.10;;;20.20;99.90;;;;;;5059582;28;20029;-71
2024/04/06 09:54:16;;;;;;;3.80;2.00;;;20.30;99.90;;;;;;5060998;28;20025;-70
2024/04/06 09:56:42;;;;;;;4.68;2.10;;;20.20;99.90;;;;;;5061531;28;20025;-76
2024/04/06 09:59:21;;;;;;;5.75;2.15;;;20.20;99.90;;;;;;5060341;28;20029;-73
2024/04/06 10:01:47;;;;;;;5.70;2.30;;;20.40;99.90;;;;;;5061188;28;20029;-74
2024/04/06 10:04:34;;;;;;;6.25;1.80;;;20.40;99.90;;;;;;5058868;28;20056;-74
2024/04/06 10:07:06;;;;;;;3.85;2.10;;;20.40;99.90;;;;;;5058077;28;20103;-73
2024/04/06 10:09:33;;;;;;;4.90;2.53;;;20.40;99.90;;;;;;5060126;28;20468;-74
2024/04/06 10:12:00;;;;;;;4.93;1.75;;;20.40;99.90;;;;;;5061067;28;20017;-72
2024/04/06 10:14:29;;;;;;;2.20;1.60;;;20.70;99.90;;;;;;5061675;28;20032;-72
2024/04/06 10:17:17;;;;;;;5.38;1.80;;;20.70;99.90;;;;;;5059075;28;20063;-72
2024/04/06 10:19:44;;;;;;;4.68;2.00;;;20.90;99.90;;;;;;5059946;28;20025;-75
2024/04/06 10:22:10;;;;;;;3.17;1.60;;;21.20;99.90;;;;;;5060259;28;20033;-74
2024/04/06 10:24:37;;;;;;;2.47;1.55;;;21.40;99.90;;;;;;5059440;28;20025;-74
2024/04/06 10:27:03;;;;;;;2.70;1.50;;;21.40;99.90;;;;;;5060817;28;20029;-71
2024/04/06 10:29:30;;;;;;;4.30;1.70;;;21.30;99.90;;;;;;5058476;28;20086;-74
2024/04/06 10:31:56;;;;;;;3.30;1.90;;;21.20;99.90;;;;;;5057410;28;20029;-75
2024/04/06 10:34:23;;;;;;;4.07;1.65;;;21.00;99.90;;;;;;5058557;28;20563;-72
2024/04/06 10:36:48;;;;;;;2.60;1.58;;;20.90;99.90;;;;;;5053999;28;20754;-72
2024/04/06 10:39:18;;;;;;;2.88;0.98;;;20.70;99.90;;;;;;5059626;28;20021;-72
2024/04/06 10:41:43;;;;;;;4.30;1.63;;;20.60;99.90;;;;;;5059614;28;20092;-72
2024/04/06 10:44:12;;;;;;;3.83;2.03;;;20.50;99.90;;;;;;5046945;28;20048;-73
2024/04/06 10:46:39;;;;;;;6.35;1.83;;;20.50;99.90;;;;;;5059839;28;21390;-73
2024/04/06 10:49:12;;;;;;;3.53;1.75;;;20.50;99.90;;;;;;5058657;28;20120;-73
2024/04/06 10:51:38;;;;;;;3.42;1.48;;;20.60;99.90;;;;;;5059693;28;20032;-72
2024/04/06 10:54:05;;;;;;;3.08;1.50;;;20.70;99.90;;;;;;5061779;28;20017;-71
2024/04/06 10:56:32;;;;;;;3.78;1.23;;;20.70;99.90;;;;;;5057417;28;20057;-73
2024/04/06 10:58:59;;;;;;;3.75;1.40;;;20.90;99.90;;;;;;5054104;28;20025;-73
2024/04/06 11:01:26;;;;;;;2.40;1.35;;;21.30;99.90;;;;;;5055377;28;20111;-76
2024/04/06 11:03:52;;;;;;;3.92;1.55;;;21.40;99.90;;;;;;5056758;28;20064;-73
2024/04/06 11:06:17;;;;;;;2.83;1.38;;;21.40;99.90;;;;;;5061118;28;20021;-70
2024/04/06 11:08:43;;;;;;;2.40;1.08;;;21.40;99.90;;;;;;5060518;28;20024;-73
2024/04/06 11:11:09;;;;;;;4.90;1.38;;;21.30;99.90;;;;;;5055789;28;20029;-72
2024/04/06 11:13:38;;;;;;;2.30;1.15;;;21.20;99.90;;;;;;5063461;28;20357;-72
2024/04/06 11:16:04;;;;;;;2.65;1.27;;;21.20;99.90;;;;;;5062874;28;20047;-69
2024/04/06 11:18:41;;;;;;;2.63;1.08;;;21.20;99.90;;;;;;5062856;28;20045;-71
2024/04/06 11:21:11;;;;;;;2.35;1.08;;;21.10;99.90;;;;;;5055732;28;20029;-73
2024/04/06 11:23:40;;;;;;;2.47;1.00;;;21.10;99.90;;;;;;5058868;28;20032;-71
2024/04/06 11:26:09;;;;;;;2.13;1.10;;;21.00;99.90;;;;;;5055845;28;20051;-72
2024/04/06 11:28:35;;;;;;;5.32;1.10;;;21.10;99.90;;;;;;5054872;28;20025;-72
2024/04/06 11:31:00;;;;;;;2.90;1.23;;;21.10;99.90;;;;;;5055561;28;20040;-73
2024/04/06 11:33:26;;;;;;;2.67;1.27;;;21.20;99.90;;;;;;5057169;28;20021;-74
2024/04/06 11:35:52;;;;;;;2.75;1.10;;;21.40;99.90;;;;;;5057340;28;20544;-72
2024/04/06 11:38:18;;;;;;;2.00;1.17;;;21.60;99.90;;;;;;5060846;28;20143;-72
2024/04/06 11:40:47;;;;;;;2.78;1.00;;;21.80;99.90;;;;;;5055052;28;20028;-74
2024/04/06 11:43:14;;;;;;;1.55;0.80;;;22.10;99.90;;;;;;5056584;28;20032;-75
2024/04/06 11:45:40;;;;;;;2.72;1.10;;;22.20;99.90;;;;;;5061057;28;20029;-72
2024/04/06 11:48:06;;;;;;;2.65;1.10;;;22.10;99.90;;;;;;5058760;28;20025;-72
2024/04/06 11:50:31;;;;;;;3.30;0.90;;;22.10;99.90;;;;;;5062334;28;20025;-69
2024/04/06 11:52:57;;;;;;;4.43;1.20;;;22.20;99.90;;;;;;5062597;28;20057;-73
2024/04/06 11:55:23;;;;;;;3.25;1.02;;;22.40;99.90;;;;;;5062637;28;20131;-72
2024/04/06 11:57:48;;;;;;;1.90;0.90;;;22.90;99.90;;;;;;5062438;28;20044;-71
2024/04/06 12:00:15;;;;;;;2.58;1.05;;;23.30;99.90;;;;;;5062917;28;20025;-73
2024/04/06 12:02:41;;;;;;;2.15;1.23;;;23.50;99.90;;;;;;5061070;28;20069;-73
2024/04/06 12:05:07;;;;;;;4.25;1.25;;;23.80;99.90;;;;;;5061623;28;20699;-70
2024/04/06 12:07:34;;;;;;;3.75;1.10;;;24.10;99.90;;;;;;5063807;28;20025;-71
2024/04/06 12:10:00;;;;;;;3.60;1.10;;;24.20;99.90;;;;;;5063463;28;20019;-75
2024/04/06 12:12:25;;;;;;;4.57;1.00;;;24.20;99.90;;;;;;5062835;28;20060;-71
2024/04/06 12:14:51;;;;;;;2.88;1.10;;;24.30;99.90;;;;;;5063603;28;20033;-72
2024/04/06 12:17:26;;;;;;;4.22;1.20;;;24.40;99.90;;;;;;5062454;28;20056;-69
2024/04/06 12:19:54;;;;;;;2.25;0.80;;;24.50;99.90;;;;;;5062233;28;20032;-72
2024/04/06 12:22:20;;;;;;;1.45;1.00;;;24.70;99.90;;;;;;5062719;28;20024;-72
2024/04/06 12:24:45;;;;;;;1.77;0.90;;;24.80;99.90;;;;;;5062411;28;20052;-71
2024/04/06 12:27:13;;;;;;;3.78;1.10;;;24.80;99.90;;;;;;5061883;28;20457;-72
2024/04/06 12:29:39;;;;;;;1.95;1.05;;;24.90;99.90;;;;;;5062209;28;20017;-71
2024/04/06 12:32:05;;;;;;;2.80;1.10;;;25.00;99.90;;;;;;5062442;28;20023;-71
2024/04/06 12:34:31;;;;;;;5.18;1.35;;;25.30;99.90;;;;;;5061188;28;20594;-72
2024/04/06 12:37:00;;;;;;;3.30;1.23;;;25.30;99.90;;;;;;5060034;28;20041;-71
2024/04/06 12:39:26;;;;;;;4.75;1.10;;;25.40;99.90;;;;;;5061004;28;20017;-69
2024/04/06 12:41:51;;;;;;;1.80;0.90;;;25.50;99.90;;;;;;5062172;28;20033;-70
2024/04/06 12:44:17;;;;;;;4.10;1.20;;;25.50;99.90;;;;;;5054989;28;20037;-74
2024/04/06 12:46:42;;;;;;;3.17;1.10;;;25.40;99.90;;;;;;5060619;28;20021;-73
2024/04/06 12:49:08;;;;;;;2.75;0.88;;;25.30;99.90;;;;;;5059862;28;20088;-71
2024/04/06 12:51:34;;;;;;;2.05;1.00;;;25.10;99.90;;;;;;5057642;28;20041;-71
2024/04/06 12:53:59;;;;;;;3.80;1.02;;;25.00;99.90;;;;;;5061459;28;20040;-71
2024/04/06 12:56:25;;;;;;;1.73;1.10;;;24.80;99.90;;;;;;5062018;28;20070;-71
2024/04/06 12:58:52;;;;;;;2.95;1.23;;;24.70;99.90;;;;;;5060601;28;20036;-71
2024/04/06 13:01:18;;;;;;;4.22;1.10;;;24.50;99.90;;;;;;5060217;28;20034;-73
2024/04/06 13:03:43;;;;;;;3.05;1.50;;;24.40;99.90;;;;;;5062893;28;20100;-70
2024/04/06 13:06:09;;;;;;;2.17;1.20;;;24.20;99.90;;;;;;5062846;28;20074;-72
2024/04/06 13:08:35;;;;;;;4.07;1.20;;;24.00;99.90;;;;;;5061693;28;20032;-72
2024/04/06 13:11:01;;;;;;;3.67;1.42;;;23.90;99.90;;;;;;5062025;28;20029;-71
2024/04/06 13:13:27;;;;;;;2.85;1.10;;;23.80;99.90;;;;;;5062632;28;20012;-71
2024/04/06 13:15:53;;;;;;;2.72;1.20;;;23.80;99.90;;;;;;5060155;28;20485;-73
2024/04/06 13:18:19;;;;;;;1.13;1.00;;;23.80;99.90;;;;;;5060267;28;20045;-72
2024/04/06 13:20:47;;;;;;;1.98;1.13;;;23.70;99.90;;;;;;5061641;28;20040;-73
2024/04/06 13:23:13;;;;;;;3.13;1.13;;;23.60;99.90;;;;;;5059740;28;20083;-72
2024/04/06 13:25:39;;;;;;;3.25;1.30;;;23.50;99.90;;;;;;5062594;28;20050;-73
2024/04/06 13:28:05;;;;;;;2.85;1.42;;;23.50;99.90;;;;;;5060802;28;20021;-73
2024/04/06 13:30:31;;;;;;;2.97;1.17;;;23.70;99.90;;;;;;5061139;28;20116;-72
2024/04/06 13:32:56;;;;;;;3.05;1.25;;;23.80;99.90;;;;;;5061318;28;20087;-73
2024/04/06 13:35:23;;;;;;;4.20;1.20;;;23.90;99.90;;;;;;5060910;28;20068;-73
2024/04/06 13:37:48;;;;;;;4.03;1.27;;;23.90;99.90;;;;;;5062285;28;20040;-71
2024/04/06 13:40:15;;;;;;;2.47;1.38;;;23.90;99.90;;;;;;5060997;28;20039;-70
2024/04/06 13:42:42;;;;;;;2.80;1.33;;;23.80;99.90;;;;;;5061030;28;20047;-72
2024/04/06 13:45:12;;;;;;;1.80;1.20;;;23.80;99.90;;;;;;5062558;28;20013;-70
2024/04/06 13:47:41;;;;;;;2.95;1.33;;;23.70;99.90;;;;;;5062214;28;20374;-74
2024/04/06 13:50:08;;;;;;;3.35;1.30;;;23.80;99.90;;;;;;5057925;28;20117;-73
2024/04/06 13:52:34;;;;;;;2.72;1.20;;;23.80;99.90;;;;;;5057919;28;20021;-72
2024/04/06 13:54:59;;;;;;;2.90;1.45;;;24.00;99.90;;;;;;5061004;28;20077;-71
2024/04/06 13:57:25;;;;;;;2.83;1.27;;;24.10;99.90;;;;;;5062051;28;20044;-72
2024/04/06 13:59:51;;;;;;;2.03;1.48;;;24.20;99.90;;;;;;5057053;28;20024;-71
2024/04/06 14:02:17;;;;;;;3.42;1.20;;;24.20;99.90;;;;;;5061898;28;20025;-70
2024/04/06 14:04:42;;;;;;;2.55;1.23;;;24.20;99.90;;;;;;5061079;28;20020;-72
2024/04/06 14:07:08;;;;;;;3.15;1.27;;;24.10;99.90;;;;;;5061931;28;20428;-71
2024/04/06 14:09:35;;;;;;;3.08;1.20;;;24.20;99.90;;;;;;5057791;28;20033;-72
2024/04/06 14:12:02;;;;;;;1.75;1.30;;;24.20;99.90;;;;;;5058418;28;20025;-72
2024/04/06 14:14:32;;;;;;;4.38;1.35;;;24.30;99.90;;;;;;5055536;28;20038;-72
2024/04/06 14:16:57;;;;;;;3.20;1.55;;;24.30;99.90;;;;;;5056442;28;20075;-72
2024/04/06 14:19:23;;;;;;;2.85;1.38;;;24.20;99.90;;;;;;5058474;28;20044;-72
2024/04/06 14:21:53;;;;;;;4.05;1.70;;;24.30;99.90;;;;;;5061302;28;20017;-70
2024/04/06 14:24:19;;;;;;;4.15;1.52;;;24.40;99.90;;;;;;5060308;28;20017;-72
2024/04/06 14:26:48;;;;;;;3.08;1.70;;;24.50;99.90;;;;;;5061922;28;20017;-70
2024/04/06 14:29:13;;;;;;;3.90;1.42;;;24.70;99.90;;;;;;5057381;28;20365;-74
2024/04/06 14:31:39;;;;;;;3.60;1.60;;;24.80;99.90;;;;;;5051267;28;20037;-78
2024/04/06 14:34:06;;;;;;;2.65;1.33;;;24.80;99.90;;;;;;5059948;28;20021;-74
2024/04/06 14:36:32;;;;;;;2.08;1.42;;;24.70;99.90;;;;;;5062103;28;20028;-76
2024/04/06 14:38:57;;;;;;;3.78;1.55;;;24.60;99.90;;;;;;5061527;28;20041;-72
2024/04/06 14:41:26;;;;;;;4.53;1.73;;;24.40;99.90;;;;;;5065804;28;20076;-73
2024/04/06 14:43:53;;;;;;;2.40;1.63;;;24.30;99.90;;;;;;5065356;28;20054;-77
2024/04/06 14:46:18;;;;;;;3.35;1.48;;;24.30;99.90;;;;;;5062989;28;20043;-72
2024/04/06 14:48:45;;;;;;;3.08;1.60;;;24.20;99.90;;;;;;5063929;28;20490;-74
2024/04/06 14:51:10;;;;;;;3.65;1.45;;;24.20;99.90;;;;;;5065477;28;20013;-72
2024/04/06 14:53:36;;;;;;;2.45;1.35;;;24.10;99.90;;;;;;5065535;28;20056;-73
2024/04/06 14:56:03;;;;;;;2.25;1.33;;;24.10;99.90;;;;;;5065860;28;20013;-74
2024/04/06 14:58:29;;;;;;;2.72;1.40;;;23.90;99.90;;;;;;5063725;28;20054;-76
2024/04/06 15:00:54;;;;;;;4.57;1.80;;;23.90;99.90;;;;;;5065282;28;20029;-72
2024/04/06 15:03:20;;;;;;;8.10;1.63;;;23.80;99.90;;;;;;5065535;28;20043;-73
2024/04/06 15:05:46;;;;;;;2.65;1.50;;;23.80;99.90;;;;;;5062641;28;20040;-71
2024/04/06 15:08:13;;;;;;;4.25;1.52;;;23.80;99.90;;;;;;5063784;28;20021;-71
2024/04/06 15:10:40;;;;;;;2.72;1.58;;;23.70;99.90;;;;;;5061991;28;20013;-74
2024/04/06 15:13:06;;;;;;;3.13;1.50;;;23.70;99.90;;;;;;5064678;28;20027;-74
2024/04/06 15:15:32;;;;;;;2.55;1.63;;;23.60;99.90;;;;;;5062790;28;20013;-74
2024/04/06 15:17:58;;;;;;;1.92;1.50;;;23.50;99.90;;;;;;5061086;28;20140;-75
2024/04/06 15:20:24;;;;;;;2.63;1.73;;;23.40;99.90;;;;;;5063797;28;20021;-75
2024/04/06 15:22:49;;;;;;;2.38;1.50;;;23.30;99.90;;;;;;5065081;28;20074;-73
2024/04/06 15:25:15;;;;;;;5.38;1.50;;;23.20;99.90;;;;;;5062796;28;20025;-72
2024/04/06 15:27:41;;;;;;;2.92;1.67;;;23.20;99.90;;;;;;5063901;28;20015;-73
2024/04/06 15:30:07;;;;;;;4.32;1.80;;;23.20;99.90;;;;;;5064930;28;20009;-75
2024/04/06 15:32:33;;;;;;;3.80;1.80;;;23.20;99.90;;;;;;5065157;28;20041;-72
2024/04/06 15:34:58;;;;;;;2.85;1.77;;;23.10;99.90;;;;;;5064842;28;20017;-70
2024/04/06 15:37:24;;;;;;;5.00;2.13;;;23.10;99.90;;;;;;5063569;28;20059;-72
2024/04/06 15:39:50;;;;;;;3.53;1.77;;;23.20;99.90;;;;;;5058931;28;20040;-72
2024/04/06 15:42:18;;;;;;;4.68;1.95;;;23.30;99.90;;;;;;5062666;28;20051;-72
2024/04/06 15:44:44;;;;;;;3.03;1.88;;;23.30;99.90;;;;;;5063774;28;20013;-72
2024/04/06 15:47:09;;;;;;;4.05;1.83;;;23.40;99.90;;;;;;5061508;28;20032;-71
2024/04/06 15:49:35;;;;;;;3.47;1.70;;;23.50;99.90;;;;;;5061270;28;20028;-72
2024/04/06 15:52:01;;;;;;;4.43;1.90;;;23.70;99.90;;;;;;5063292;28;20024;-73
2024/04/06 15:54:27;;;;;;;4.47;1.77;;;23.90;99.90;;;;;;5063056;28;20087;-71
2024/04/06 15:56:52;;;;;;;2.33;1.42;;;24.10;99.90;;;;;;5063781;28;20017;-73
2024/04/06 15:59:18;;;;;;;3.55;1.70;;;24.30;99.90;;;;;;5064958;28;20041;-73
2024/04/06 16:01:44;;;;;;;3.97;1.75;;;24.30;99.90;;;;;;5060325;28;20081;-72
2024/04/06 16:04:10;;;;;;;3.47;1.63;;;24.40;99.90;;;;;;5062777;28;20362;-69
2024/04/06 16:06:36;;;;;;;3.72;1.80;;;24.50;99.90;;;;;;5061457;28;20021;-73
2024/04/06 16:09:02;;;;;;;7.38;1.75;;;24.40;99.90;;;;;;5062243;28;20105;-71
2024/04/06 16:11:28;;;;;;;2.78;1.67;;;24.30;99.90;;;;;;5061176;28;20087;-72
2024/04/06 16:14:00;;;;;;;3.10;1.70;;;24.20;99.90;;;;;;5063575;28;20041;-74
2024/04/06 16:16:26;;;;;;;5.30;2.15;;;24.10;99.90;;;;;;5064185;28;20013;-72
2024/04/06 16:18:51;;;;;;;3.28;2.13;;;24.00;99.90;;;;;;5062444;28;20047;-72
2024/04/06 16:21:17;;;;;;;4.55;2.13;;;23.90;99.90;;;;;;5064315;28;20107;-72
2024/04/06 16:23:43;;;;;;;6.53;1.90;;;23.80;99.90;;;;;;5063777;28;20044;-72
2024/04/06 16:26:09;;;;;;;3.95;2.10;;;23.70;99.90;;;;;;5063938;28;20024;-71
2024/04/06 16:28:35;;;;;;;4.20;1.70;;;23.60;99.90;;;;;;5062780;28;20100;-73
2024/04/06 16:31:01;;;;;;;3.75;2.17;;;23.50;99.90;;;;;;5062013;28;20025;-72
2024/04/06 16:33:26;;;;;;;6.47;2.65;;;23.50;99.90;;;;;;5061741;28;20050;-72
2024/04/06 16:35:53;;;;;;;4.57;2.83;;;23.40;99.90;;;;;;5063231;28;20048;-75
2024/04/06 16:38:18;;;;;;;5.03;2.33;;;23.20;99.90;;;;;;5063420;28;20029;-70
2024/04/06 16:40:44;;;;;;;5.28;3.22;;;23.20;99.90;;;;;;5063870;28;20040;-71
2024/04/06 16:43:12;;;;;;;4.47;2.20;;;23.00;99.90;;;;;;5062490;28;20070;-69
2024/04/06 16:45:38;;;;;;;6.40;2.08;;;23.00;99.90;;;;;;5062178;28;20053;-71
2024/04/06 16:48:05;;;;;;;5.45;2.40;;;22.90;99.90;;;;;;5063488;28;20021;-71
2024/04/06 16:50:30;;;;;;;7.38;3.35;;;22.80;99.90;;;;;;5063550;28;20025;-71
2024/04/06 16:52:56;;;;;;;4.47;3.10;;;22.70;99.90;;;;;;5062050;28;20039;-73
2024/04/06 16:55:22;;;;;;;4.60;3.20;;;22.60;99.90;;;;;;5062445;28;20429;-71
2024/04/06 16:57:47;;;;;;;4.68;2.60;;;22.50;99.90;;;;;;5054270;28;20109;-72
2024/04/06 17:00:13;;;;;;;3.00;2.20;;;22.50;99.90;;;;;;5051127;28;20088;-72
2024/04/06 17:02:40;;;;;;;6.47;2.40;;;22.40;99.90;;;;;;5057340;28;20469;-71
2024/04/06 17:05:11;;;;;;;4.78;2.08;;;22.40;99.90;;;;;;5060367;28;20384;-71
2024/04/06 17:07:37;;;;;;;5.05;2.17;;;22.30;99.90;;;;;;5060588;28;20055;-72
2024/04/06 17:10:04;;;;;;;4.03;2.47;;;22.20;99.90;;;;;;5061774;28;20092;-71
2024/04/06 17:12:31;;;;;;;5.00;2.40;;;22.10;99.90;;;;;;5060004;28;20041;-71
2024/04/06 17:14:56;;;;;;;3.63;2.35;;;22.00;99.90;;;;;;5063187;28;20045;-72
2024/04/06 17:17:22;;;;;;;3.78;2.38;;;22.00;99.90;;;;;;5061640;28;20037;-73
2024/04/06 17:19:48;;;;;;;3.60;2.22;;;21.90;99.90;;;;;;5061273;28;20624;-72
2024/04/06 17:22:15;;;;;;;9.05;2.70;;;21.90;99.90;;;;;;5062968;28;20029;-71
2024/04/06 17:24:42;;;;;;;7.22;2.55;;;21.90;99.90;;;;;;5062873;28;20021;-71
2024/04/06 17:27:08;;;;;;;4.57;2.30;;;21.80;99.90;;;;;;5062436;28;20100;-72
2024/04/06 17:29:37;;;;;;;7.22;2.13;;;21.70;99.90;;;;;;5061651;28;20029;-72
2024/04/06 17:32:06;;;;;;;5.05;2.50;;;21.70;99.90;;;;;;5058046;28;20029;-71
2024/04/06 17:34:36;;;;;;;8.25;2.40;;;21.60;99.90;;;;;;5062144;28;20021;-72
2024/04/06 17:37:02;;;;;;;3.47;2.20;;;21.50;99.90;;;;;;5062657;28;20481;-70
2024/04/06 17:39:28;;;;;;;6.68;2.20;;;21.50;99.90;;;;;;5062748;28;20021;-73
2024/04/06 17:41:54;;;;;;;3.38;2.05;;;21.40;99.90;;;;;;5059991;28;20047;-72
2024/04/06 17:44:19;;;;;;;3.92;2.25;;;21.40;99.90;;;;;;5061088;28;20127;-72
2024/04/06 17:46:45;;;;;;;5.95;2.30;;;21.30;99.90;;;;;;5060955;28;20038;-71
2024/04/06 17:49:11;;;;;;;3.55;2.20;;;21.30;99.90;;;;;;5060407;28;20155;-71
2024/04/06 17:51:38;;;;;;;4.68;2.63;;;21.20;99.90;;;;;;5062703;28;20031;-72
2024/04/06 17:54:04;;;;;;;5.75;2.05;;;21.10;99.90;;;;;;5059727;28;20477;-71
2024/04/06 17:56:30;;;;;;;4.13;2.20;;;21.10;99.90;;;;;;5060941;28;20028;-73
2024/04/06 17:58:55;;;;;;;3.17;2.13;;;21.00;99.90;;;;;;5061117;28;20572;-72
2024/04/06 18:01:21;;;;;;;4.93;2.15;;;20.90;99.90;;;;;;5062172;28;20107;-72
2024/04/06 18:03:48;;;;;;;5.28;2.22;;;20.90;99.90;;;;;;5060938;28;20036;-72
2024/04/06 18:06:13;;;;;;;5.57;2.42;;;20.80;99.90;;;;;;5061725;28;20033;-70
2024/04/06 18:08:39;;;;;;;6.80;2.35;;;20.80;99.90;;;;;;5058635;28;20059;-71
2024/04/06 18:11:05;;;;;;;10.32;2.60;;;20.70;99.90;;;;;;5062076;28;20017;-70
2024/04/06 18:13:31;;;;;;;4.43;2.80;;;20.70;99.90;;;;;;5058433;28;20013;-70
2024/04/06 18:15:58;;;;;;;4.57;2.25;;;20.60;99.90;;;;;;5057103;28;20076;-71
2024/04/06 18:18:24;;;;;;;4.80;2.47;;;20.50;99.90;;;;;;5056308;28;20048;-71
2024/04/06 18:20:50;;;;;;;4.60;2.60;;;20.50;99.90;;;;;;5057437;28;20037;-71
2024/04/06 18:23:16;;;;;;;5.10;2.83;;;20.40;99.90;;;;;;5058409;28;20039;-71
2024/04/06 18:25:42;;;;;;;6.75;2.70;;;20.40;99.90;;;;;;5058892;28;20064;-70
2024/04/06 18:28:08;;;;;;;6.40;3.10;;;20.30;99.90;;;;;;5058736;28;20047;-70
2024/04/06 18:30:34;;;;;;;4.25;2.88;;;20.30;99.90;;;;;;5060802;28;20485;-69
2024/04/06 18:33:01;;;;;;;6.75;2.80;;;20.20;99.90;;;;;;5060159;28;20017;-71
2024/04/06 18:35:26;;;;;;;6.68;3.03;;;20.10;99.90;;;;;;5060553;28;20433;-71
2024/04/06 18:37:52;;;;;;;5.32;3.30;;;20.10;99.90;;;;;;5059954;28;20024;-70
2024/04/06 18:40:19;;;;;;;6.43;3.17;;;20.10;99.90;;;;;;5060824;28;20049;-71
2024/04/06 18:42:45;;;;;;;5.57;3.20;;;20.00;99.90;;;;;;5061747;28;20408;-72
2024/04/06 18:45:11;;;;;;;6.57;3.05;;;20.00;99.90;;;;;;5060700;28;20017;-70
2024/04/06 18:47:37;;;;;;;6.53;3.80;;;19.90;99.90;;;;;;5056478;28;20032;-70
2024/04/06 18:50:04;;;;;;;6.68;3.65;;;19.90;99.90;;;;;;5060686;28;20044;-70
2024/04/06 18:52:30;;;;;;;8.68;3.78;;;19.90;99.90;;;;;;5058724;28;20025;-70
2024/04/06 18:54:56;;;;;;;7.97;3.38;;;19.80;99.90;;;;;;5059009;28;20028;-69
2024/04/06 18:57:21;;;;;;;5.57;3.58;;;19.80;99.90;;;;;;5061324;28;20033;-70